sensor_id;sensor_type;location;lat;lon;timestamp;P1;durP1;ratioP1;P2;durP2;ratioP2
40695;SDS011;40425;51.102;17.208;2022-08-19T00:00:24;7.97;;;5.78;;
40695;SDS011;40425;51.102;17.208;2022-08-19T00:05:26;7.13;;;5.55;;
40695;SDS011;40425;51.102;17.208;2022-08-19T00:10:27;7.55;;;6.03;;
40695;SDS011;40425;51.102;17.208;2022-08-19T00:15:28;8.93;;;5.68;;
40695;SDS011;40425;51.102;17.208;2022-08-19T00:20:29;7.57;;;5.30;;
40695;SDS011;40425;51.102;17.208;2022-08-19T00:25:30;6.68;;;5.65;;
40695;SDS011;40425;51.102;17.208;2022-08-19T00:30:30;6.90;;;5.85;;
40695;SDS011;40425;51.102;17.208;2022-08-19T00:35:31;6.90;;;6.10;;
40695;SDS011;40425;51.102;17.208;2022-08-19T00:40:33;9.68;;;5.78;;
40695;SDS011;40425;51.102;17.208;2022-08-19T00:45:34;6.85;;;6.20;;
40695;SDS011;40425;51.102;17.208;2022-08-19T00:50:35;8.60;;;6.38;;
40695;SDS011;40425;51.102;17.208;2022-08-19T00:55:40;7.90;;;5.80;;
40695;SDS011;40425;51.102;17.208;2022-08-19T01:00:45;8.68;;;5.93;;
40695;SDS011;40425;51.102;17.208;2022-08-19T01:05:47;8.23;;;5.82;;
40695;SDS011;40425;51.102;17.208;2022-08-19T01:10:51;9.73;;;6.78;;
40695;SDS011;40425;51.102;17.208;2022-08-19T01:15:57;7.97;;;5.95;;
40695;SDS011;40425;51.102;17.208;2022-08-19T01:21:18;7.75;;;6.95;;
40695;SDS011;40425;51.102;17.208;2022-08-19T01:26:41;7.05;;;6.35;;
40695;SDS011;40425;51.102;17.208;2022-08-19T01:31:44;9.25;;;6.50;;
40695;SDS011;40425;51.102;17.208;2022-08-19T01:36:46;7.95;;;7.07;;
40695;SDS011;40425;51.102;17.208;2022-08-19T01:41:49;9.07;;;7.05;;
40695;SDS011;40425;51.102;17.208;2022-08-19T01:46:50;7.20;;;6.47;;
40695;SDS011;40425;51.102;17.208;2022-08-19T01:51:51;9.63;;;6.78;;
40695;SDS011;40425;51.102;17.208;2022-08-19T01:56:55;8.38;;;6.30;;
40695;SDS011;40425;51.102;17.208;2022-08-19T02:02:03;7.05;;;6.15;;
40695;SDS011;40425;51.102;17.208;2022-08-19T02:07:08;7.70;;;6.95;;
40695;SDS011;40425;51.102;17.208;2022-08-19T02:12:19;9.10;;;7.20;;
40695;SDS011;40425;51.102;17.208;2022-08-19T02:17:20;9.02;;;6.93;;
40695;SDS011;40425;51.102;17.208;2022-08-19T02:22:21;8.23;;;7.18;;
40695;SDS011;40425;51.102;17.208;2022-08-19T02:27:25;9.48;;;6.88;;
40695;SDS011;40425;51.102;17.208;2022-08-19T02:32:26;8.15;;;6.90;;
40695;SDS011;40425;51.102;17.208;2022-08-19T02:37:27;11.90;;;7.93;;
40695;SDS011;40425;51.102;17.208;2022-08-19T02:42:46;12.47;;;7.57;;
40695;SDS011;40425;51.102;17.208;2022-08-19T02:47:47;10.80;;;7.72;;
40695;SDS011;40425;51.102;17.208;2022-08-19T02:52:48;9.07;;;7.80;;
40695;SDS011;40425;51.102;17.208;2022-08-19T02:57:49;8.30;;;7.40;;
40695;SDS011;40425;51.102;17.208;2022-08-19T03:02:50;9.30;;;8.38;;
40695;SDS011;40425;51.102;17.208;2022-08-19T03:07:50;8.32;;;7.43;;
40695;SDS011;40425;51.102;17.208;2022-08-19T03:12:51;9.13;;;8.20;;
40695;SDS011;40425;51.102;17.208;2022-08-19T03:17:52;12.07;;;7.97;;
40695;SDS011;40425;51.102;17.208;2022-08-19T03:22:57;9.75;;;8.60;;
40695;SDS011;40425;51.102;17.208;2022-08-19T03:27:58;12.50;;;9.50;;
40695;SDS011;40425;51.102;17.208;2022-08-19T03:32:58;12.48;;;9.02;;
40695;SDS011;40425;51.102;17.208;2022-08-19T03:37:59;16.80;;;9.43;;
40695;SDS011;40425;51.102;17.208;2022-08-19T03:43:00;10.43;;;9.13;;
40695;SDS011;40425;51.102;17.208;2022-08-19T03:48:01;10.27;;;9.27;;
40695;SDS011;40425;51.102;17.208;2022-08-19T03:53:02;9.00;;;8.20;;
40695;SDS011;40425;51.102;17.208;2022-08-19T03:58:03;10.07;;;8.73;;
40695;SDS011;40425;51.102;17.208;2022-08-19T04:03:04;9.77;;;8.77;;
40695;SDS011;40425;51.102;17.208;2022-08-19T04:08:05;12.73;;;10.65;;
40695;SDS011;40425;51.102;17.208;2022-08-19T04:13:05;14.90;;;9.70;;
40695;SDS011;40425;51.102;17.208;2022-08-19T04:18:10;10.88;;;9.30;;
40695;SDS011;40425;51.102;17.208;2022-08-19T04:23:12;10.07;;;8.57;;
40695;SDS011;40425;51.102;17.208;2022-08-19T04:28:13;8.77;;;7.88;;
40695;SDS011;40425;51.102;17.208;2022-08-19T04:33:15;10.27;;;8.70;;
40695;SDS011;40425;51.102;17.208;2022-08-19T04:38:19;12.68;;;9.15;;
40695;SDS011;40425;51.102;17.208;2022-08-19T04:43:22;12.65;;;9.18;;
40695;SDS011;40425;51.102;17.208;2022-08-19T04:48:23;12.48;;;9.02;;
40695;SDS011;40425;51.102;17.208;2022-08-19T04:53:28;13.40;;;10.07;;
40695;SDS011;40425;51.102;17.208;2022-08-19T04:58:30;15.18;;;9.80;;
40695;SDS011;40425;51.102;17.208;2022-08-19T05:03:32;15.13;;;10.20;;
40695;SDS011;40425;51.102;17.208;2022-08-19T05:08:34;12.70;;;9.27;;
40695;SDS011;40425;51.102;17.208;2022-08-19T05:13:37;17.05;;;10.07;;
40695;SDS011;40425;51.102;17.208;2022-08-19T05:18:39;15.25;;;10.27;;
40695;SDS011;40425;51.102;17.208;2022-08-19T05:23:58;14.95;;;10.68;;
40695;SDS011;40425;51.102;17.208;2022-08-19T05:28:59;10.90;;;9.80;;
40695;SDS011;40425;51.102;17.208;2022-08-19T05:34:00;15.27;;;9.85;;
40695;SDS011;40425;51.102;17.208;2022-08-19T05:39:02;16.98;;;10.88;;
40695;SDS011;40425;51.102;17.208;2022-08-19T05:44:04;13.55;;;10.57;;
40695;SDS011;40425;51.102;17.208;2022-08-19T05:49:09;15.10;;;10.02;;
40695;SDS011;40425;51.102;17.208;2022-08-19T05:54:10;14.93;;;10.77;;
40695;SDS011;40425;51.102;17.208;2022-08-19T05:59:14;15.68;;;9.90;;
40695;SDS011;40425;51.102;17.208;2022-08-19T06:04:17;15.95;;;10.55;;
40695;SDS011;40425;51.102;17.208;2022-08-19T06:09:20;10.85;;;9.52;;
40695;SDS011;40425;51.102;17.208;2022-08-19T06:14:23;13.20;;;9.30;;
40695;SDS011;40425;51.102;17.208;2022-08-19T06:19:26;13.35;;;9.65;;
40695;SDS011;40425;51.102;17.208;2022-08-19T06:24:29;12.88;;;9.88;;
40695;SDS011;40425;51.102;17.208;2022-08-19T06:29:32;13.02;;;9.55;;
40695;SDS011;40425;51.102;17.208;2022-08-19T06:34:33;12.13;;;8.68;;
40695;SDS011;40425;51.102;17.208;2022-08-19T06:39:36;12.18;;;9.70;;
40695;SDS011;40425;51.102;17.208;2022-08-19T06:44:40;11.73;;;9.45;;
40695;SDS011;40425;51.102;17.208;2022-08-19T06:49:42;14.13;;;9.55;;
40695;SDS011;40425;51.102;17.208;2022-08-19T06:54:43;11.10;;;9.23;;
40695;SDS011;40425;51.102;17.208;2022-08-19T06:59:43;26.40;;;9.90;;
40695;SDS011;40425;51.102;17.208;2022-08-19T07:04:44;12.88;;;8.50;;
40695;SDS011;40425;51.102;17.208;2022-08-19T07:09:46;13.73;;;8.88;;
40695;SDS011;40425;51.102;17.208;2022-08-19T07:14:47;15.90;;;9.13;;
40695;SDS011;40425;51.102;17.208;2022-08-19T07:19:49;11.68;;;8.48;;
40695;SDS011;40425;51.102;17.208;2022-08-19T07:24:50;14.85;;;8.80;;
40695;SDS011;40425;51.102;17.208;2022-08-19T07:29:52;12.68;;;7.55;;
40695;SDS011;40425;51.102;17.208;2022-08-19T07:34:54;14.75;;;8.15;;
40695;SDS011;40425;51.102;17.208;2022-08-19T07:39:55;12.77;;;6.88;;
40695;SDS011;40425;51.102;17.208;2022-08-19T07:44:56;9.65;;;6.80;;
40695;SDS011;40425;51.102;17.208;2022-08-19T07:49:57;14.95;;;7.43;;
40695;SDS011;40425;51.102;17.208;2022-08-19T07:54:58;25.08;;;7.25;;
40695;SDS011;40425;51.102;17.208;2022-08-19T08:00:00;12.77;;;7.07;;
40695;SDS011;40425;51.102;17.208;2022-08-19T08:05:00;10.75;;;6.15;;
40695;SDS011;40425;51.102;17.208;2022-08-19T08:10:20;12.80;;;6.88;;
40695;SDS011;40425;51.102;17.208;2022-08-19T08:15:22;16.10;;;5.95;;
40695;SDS011;40425;51.102;17.208;2022-08-19T08:20:23;15.10;;;6.32;;
40695;SDS011;40425;51.102;17.208;2022-08-19T08:25:24;9.10;;;5.47;;
40695;SDS011;40425;51.102;17.208;2022-08-19T08:30:26;10.65;;;6.00;;
40695;SDS011;40425;51.102;17.208;2022-08-19T08:35:28;31.63;;;7.97;;
40695;SDS011;40425;51.102;17.208;2022-08-19T08:45:47;8.88;;;5.70;;
40695;SDS011;40425;51.102;17.208;2022-08-19T08:50:56;5.80;;;5.20;;
40695;SDS011;40425;51.102;17.208;2022-08-19T08:56:01;10.32;;;5.88;;
40695;SDS011;40425;51.102;17.208;2022-08-19T09:01:05;9.55;;;5.10;;
40695;SDS011;40425;51.102;17.208;2022-08-19T09:06:07;12.20;;;4.85;;
40695;SDS011;40425;51.102;17.208;2022-08-19T09:16:44;12.73;;;5.95;;
40695;SDS011;40425;51.102;17.208;2022-08-19T09:21:45;8.30;;;4.50;;
40695;SDS011;40425;51.102;17.208;2022-08-19T09:26:46;8.25;;;4.90;;
40695;SDS011;40425;51.102;17.208;2022-08-19T09:31:50;15.00;;;4.60;;
40695;SDS011;40425;51.102;17.208;2022-08-19T09:36:52;6.43;;;3.85;;
40695;SDS011;40425;51.102;17.208;2022-08-19T09:41:55;8.77;;;4.25;;
40695;SDS011;40425;51.102;17.208;2022-08-19T09:46:59;6.72;;;4.20;;
40695;SDS011;40425;51.102;17.208;2022-08-19T09:52:00;7.43;;;3.40;;
40695;SDS011;40425;51.102;17.208;2022-08-19T09:57:01;9.00;;;3.38;;
40695;SDS011;40425;51.102;17.208;2022-08-19T10:02:02;5.82;;;2.72;;
40695;SDS011;40425;51.102;17.208;2022-08-19T10:07:03;5.25;;;3.15;;
40695;SDS011;40425;51.102;17.208;2022-08-19T10:12:04;13.82;;;3.15;;
40695;SDS011;40425;51.102;17.208;2022-08-19T10:17:06;7.05;;;3.53;;
40695;SDS011;40425;51.102;17.208;2022-08-19T10:22:07;9.75;;;2.95;;
40695;SDS011;40425;51.102;17.208;2022-08-19T10:27:08;20.70;;;3.72;;
40695;SDS011;40425;51.102;17.208;2022-08-19T10:32:10;9.60;;;2.78;;
40695;SDS011;40425;51.102;17.208;2022-08-19T10:37:15;4.53;;;2.50;;
40695;SDS011;40425;51.102;17.208;2022-08-19T10:42:17;3.97;;;2.60;;
40695;SDS011;40425;51.102;17.208;2022-08-19T10:47:18;7.00;;;2.45;;
40695;SDS011;40425;51.102;17.208;2022-08-19T10:52:20;8.65;;;2.63;;
40695;SDS011;40425;51.102;17.208;2022-08-19T10:57:33;4.88;;;2.55;;
40695;SDS011;40425;51.102;17.208;2022-08-19T11:02:34;12.90;;;3.17;;
40695;SDS011;40425;51.102;17.208;2022-08-19T11:07:36;8.35;;;3.00;;
40695;SDS011;40425;51.102;17.208;2022-08-19T11:12:43;8.83;;;2.60;;
40695;SDS011;40425;51.102;17.208;2022-08-19T11:17:46;21.13;;;3.05;;
40695;SDS011;40425;51.102;17.208;2022-08-19T11:22:47;4.35;;;2.53;;
40695;SDS011;40425;51.102;17.208;2022-08-19T11:27:48;13.05;;;2.58;;
40695;SDS011;40425;51.102;17.208;2022-08-19T11:32:52;10.57;;;2.65;;
40695;SDS011;40425;51.102;17.208;2022-08-19T11:37:52;20.65;;;4.07;;
40695;SDS011;40425;51.102;17.208;2022-08-19T11:42:53;4.30;;;2.15;;
40695;SDS011;40425;51.102;17.208;2022-08-19T11:47:55;4.63;;;2.10;;
40695;SDS011;40425;51.102;17.208;2022-08-19T11:52:57;12.25;;;2.10;;
40695;SDS011;40425;51.102;17.208;2022-08-19T11:57:57;7.70;;;1.30;;
40695;SDS011;40425;51.102;17.208;2022-08-19T12:02:58;3.88;;;0.80;;
40695;SDS011;40425;51.102;17.208;2022-08-19T12:08:00;5.00;;;0.90;;
40695;SDS011;40425;51.102;17.208;2022-08-19T12:13:01;3.25;;;0.70;;
40695;SDS011;40425;51.102;17.208;2022-08-19T12:18:02;3.08;;;1.02;;
40695;SDS011;40425;51.102;17.208;2022-08-19T12:23:04;2.58;;;0.95;;
40695;SDS011;40425;51.102;17.208;2022-08-19T12:28:06;9.73;;;1.42;;
40695;SDS011;40425;51.102;17.208;2022-08-19T12:33:08;35.13;;;4.40;;
40695;SDS011;40425;51.102;17.208;2022-08-19T12:38:10;4.68;;;1.27;;
40695;SDS011;40425;51.102;17.208;2022-08-19T12:48:20;9.05;;;1.08;;
40695;SDS011;40425;51.102;17.208;2022-08-19T12:53:21;7.88;;;1.25;;
40695;SDS011;40425;51.102;17.208;2022-08-19T12:58:22;5.78;;;1.10;;
40695;SDS011;40425;51.102;17.208;2022-08-19T13:03:23;12.45;;;1.90;;
40695;SDS011;40425;51.102;17.208;2022-08-19T13:08:29;7.95;;;1.25;;
40695;SDS011;40425;51.102;17.208;2022-08-19T13:13:30;11.00;;;1.45;;
40695;SDS011;40425;51.102;17.208;2022-08-19T13:18:30;16.80;;;2.10;;
40695;SDS011;40425;51.102;17.208;2022-08-19T13:23:33;6.00;;;1.50;;
40695;SDS011;40425;51.102;17.208;2022-08-19T13:28:36;26.67;;;2.20;;
40695;SDS011;40425;51.102;17.208;2022-08-19T13:34:04;11.70;;;1.10;;
40695;SDS011;40425;51.102;17.208;2022-08-19T13:39:06;6.32;;;0.70;;
40695;SDS011;40425;51.102;17.208;2022-08-19T13:44:08;7.20;;;1.15;;
40695;SDS011;40425;51.102;17.208;2022-08-19T13:49:11;8.63;;;1.20;;
40695;SDS011;40425;51.102;17.208;2022-08-19T13:54:15;6.22;;;0.95;;
40695;SDS011;40425;51.102;17.208;2022-08-19T13:59:16;9.00;;;1.30;;
40695;SDS011;40425;51.102;17.208;2022-08-19T14:04:17;9.23;;;1.17;;
40695;SDS011;40425;51.102;17.208;2022-08-19T14:09:18;6.18;;;1.10;;
40695;SDS011;40425;51.102;17.208;2022-08-19T14:14:19;14.05;;;1.80;;
40695;SDS011;40425;51.102;17.208;2022-08-19T14:19:21;8.60;;;1.90;;
40695;SDS011;40425;51.102;17.208;2022-08-19T14:24:22;6.82;;;1.15;;
40695;SDS011;40425;51.102;17.208;2022-08-19T14:29:23;11.05;;;1.60;;
40695;SDS011;40425;51.102;17.208;2022-08-19T14:34:30;10.38;;;2.15;;
40695;SDS011;40425;51.102;17.208;2022-08-19T14:39:34;8.40;;;1.27;;
40695;SDS011;40425;51.102;17.208;2022-08-19T14:44:36;12.15;;;1.48;;
40695;SDS011;40425;51.102;17.208;2022-08-19T14:49:37;8.25;;;1.10;;
40695;SDS011;40425;51.102;17.208;2022-08-19T14:54:39;18.13;;;1.77;;
40695;SDS011;40425;51.102;17.208;2022-08-19T14:59:40;12.43;;;1.83;;
40695;SDS011;40425;51.102;17.208;2022-08-19T15:04:43;10.57;;;1.88;;
40695;SDS011;40425;51.102;17.208;2022-08-19T15:09:44;4.68;;;1.17;;
40695;SDS011;40425;51.102;17.208;2022-08-19T15:14:45;14.40;;;1.75;;
40695;SDS011;40425;51.102;17.208;2022-08-19T15:19:50;51.00;;;4.05;;
40695;SDS011;40425;51.102;17.208;2022-08-19T15:24:51;9.88;;;1.40;;
40695;SDS011;40425;51.102;17.208;2022-08-19T15:29:53;13.25;;;1.55;;
40695;SDS011;40425;51.102;17.208;2022-08-19T15:34:54;6.60;;;1.73;;
40695;SDS011;40425;51.102;17.208;2022-08-19T15:39:54;5.35;;;1.83;;
40695;SDS011;40425;51.102;17.208;2022-08-19T15:44:55;11.48;;;3.03;;
40695;SDS011;40425;51.102;17.208;2022-08-19T15:49:56;6.60;;;3.08;;
40695;SDS011;40425;51.102;17.208;2022-08-19T15:54:58;12.30;;;4.15;;
40695;SDS011;40425;51.102;17.208;2022-08-19T15:59:59;8.63;;;6.10;;
40695;SDS011;40425;51.102;17.208;2022-08-19T16:05:20;15.57;;;6.68;;
40695;SDS011;40425;51.102;17.208;2022-08-19T16:10:42;9.48;;;7.18;;
40695;SDS011;40425;51.102;17.208;2022-08-19T16:15:43;12.02;;;7.57;;
40695;SDS011;40425;51.102;17.208;2022-08-19T16:20:44;16.02;;;7.78;;
40695;SDS011;40425;51.102;17.208;2022-08-19T16:25:45;11.88;;;8.27;;
40695;SDS011;40425;51.102;17.208;2022-08-19T16:30:46;18.42;;;10.13;;
40695;SDS011;40425;51.102;17.208;2022-08-19T16:35:47;12.43;;;10.93;;
40695;SDS011;40425;51.102;17.208;2022-08-19T16:40:48;13.90;;;11.00;;
40695;SDS011;40425;51.102;17.208;2022-08-19T16:45:53;18.52;;;10.77;;
40695;SDS011;40425;51.102;17.208;2022-08-19T16:50:55;14.50;;;9.93;;
40695;SDS011;40425;51.102;17.208;2022-08-19T16:55:58;25.15;;;11.88;;
40695;SDS011;40425;51.102;17.208;2022-08-19T17:01:01;15.77;;;11.63;;
40695;SDS011;40425;51.102;17.208;2022-08-19T17:06:10;16.15;;;11.75;;
40695;SDS011;40425;51.102;17.208;2022-08-19T17:11:17;13.43;;;11.55;;
40695;SDS011;40425;51.102;17.208;2022-08-19T17:16:19;16.15;;;11.98;;
40695;SDS011;40425;51.102;17.208;2022-08-19T17:21:24;20.65;;;12.50;;
40695;SDS011;40425;51.102;17.208;2022-08-19T17:26:28;14.73;;;12.50;;
40695;SDS011;40425;51.102;17.208;2022-08-19T17:31:30;20.60;;;12.70;;
40695;SDS011;40425;51.102;17.208;2022-08-19T17:36:31;20.90;;;13.70;;
40695;SDS011;40425;51.102;17.208;2022-08-19T17:41:34;20.80;;;12.25;;
40695;SDS011;40425;51.102;17.208;2022-08-19T17:46:35;15.27;;;12.60;;
40695;SDS011;40425;51.102;17.208;2022-08-19T17:51:38;15.93;;;13.02;;
40695;SDS011;40425;51.102;17.208;2022-08-19T17:56:44;15.90;;;12.45;;
40695;SDS011;40425;51.102;17.208;2022-08-19T18:01:46;16.67;;;12.75;;
40695;SDS011;40425;51.102;17.208;2022-08-19T18:06:47;15.77;;;13.65;;
40695;SDS011;40425;51.102;17.208;2022-08-19T18:11:48;20.20;;;13.25;;
40695;SDS011;40425;51.102;17.208;2022-08-19T18:16:50;15.65;;;13.68;;
40695;SDS011;40425;51.102;17.208;2022-08-19T18:21:53;19.08;;;13.48;;
40695;SDS011;40425;51.102;17.208;2022-08-19T18:26:54;23.17;;;14.77;;
40695;SDS011;40425;51.102;17.208;2022-08-19T18:31:55;19.67;;;14.68;;
40695;SDS011;40425;51.102;17.208;2022-08-19T18:36:57;25.98;;;14.52;;
40695;SDS011;40425;51.102;17.208;2022-08-19T18:42:00;27.35;;;16.25;;
40695;SDS011;40425;51.102;17.208;2022-08-19T18:47:32;43.83;;;17.33;;
40695;SDS011;40425;51.102;17.208;2022-08-19T18:57:52;32.13;;;15.77;;
40695;SDS011;40425;51.102;17.208;2022-08-19T19:02:55;21.98;;;14.63;;
40695;SDS011;40425;51.102;17.208;2022-08-19T19:07:59;19.17;;;14.80;;
40695;SDS011;40425;51.102;17.208;2022-08-19T19:13:01;19.42;;;14.60;;
40695;SDS011;40425;51.102;17.208;2022-08-19T19:18:03;24.17;;;14.63;;
40695;SDS011;40425;51.102;17.208;2022-08-19T19:23:07;21.45;;;13.85;;
40695;SDS011;40425;51.102;17.208;2022-08-19T19:28:09;19.73;;;11.75;;
40695;SDS011;40425;51.102;17.208;2022-08-19T19:33:12;26.15;;;8.63;;
40695;SDS011;40425;51.102;17.208;2022-08-19T19:38:14;16.90;;;6.85;;
40695;SDS011;40425;51.102;17.208;2022-08-19T19:43:18;15.73;;;6.38;;
40695;SDS011;40425;51.102;17.208;2022-08-19T19:48:22;12.38;;;6.43;;
40695;SDS011;40425;51.102;17.208;2022-08-19T19:53:29;10.38;;;6.38;;
40695;SDS011;40425;51.102;17.208;2022-08-19T19:58:35;17.63;;;7.25;;
40695;SDS011;40425;51.102;17.208;2022-08-19T20:03:42;9.70;;;6.25;;
40695;SDS011;40425;51.102;17.208;2022-08-19T20:08:52;10.60;;;6.78;;
40695;SDS011;40425;51.102;17.208;2022-08-19T20:14:16;11.95;;;6.38;;
40695;SDS011;40425;51.102;17.208;2022-08-19T20:19:22;13.98;;;6.45;;
40695;SDS011;40425;51.102;17.208;2022-08-19T20:24:26;15.80;;;5.80;;
40695;SDS011;40425;51.102;17.208;2022-08-19T20:29:34;11.75;;;5.85;;
40695;SDS011;40425;51.102;17.208;2022-08-19T20:34:36;14.32;;;6.55;;
40695;SDS011;40425;51.102;17.208;2022-08-19T20:39:38;10.82;;;6.65;;
40695;SDS011;40425;51.102;17.208;2022-08-19T20:44:39;11.73;;;6.40;;
40695;SDS011;40425;51.102;17.208;2022-08-19T20:49:40;16.40;;;6.57;;
40695;SDS011;40425;51.102;17.208;2022-08-19T20:54:41;14.18;;;7.30;;
40695;SDS011;40425;51.102;17.208;2022-08-19T20:59:42;12.55;;;6.95;;
40695;SDS011;40425;51.102;17.208;2022-08-19T21:04:45;10.45;;;6.75;;
40695;SDS011;40425;51.102;17.208;2022-08-19T21:09:47;13.98;;;7.05;;
40695;SDS011;40425;51.102;17.208;2022-08-19T21:14:51;10.68;;;7.50;;
40695;SDS011;40425;51.102;17.208;2022-08-19T21:19:52;11.90;;;7.72;;
40695;SDS011;40425;51.102;17.208;2022-08-19T21:24:52;13.32;;;7.80;;
40695;SDS011;40425;51.102;17.208;2022-08-19T21:29:53;13.98;;;8.00;;
40695;SDS011;40425;51.102;17.208;2022-08-19T21:34:55;11.82;;;7.97;;
40695;SDS011;40425;51.102;17.208;2022-08-19T21:39:58;12.00;;;7.90;;
40695;SDS011;40425;51.102;17.208;2022-08-19T21:45:02;9.57;;;7.30;;
40695;SDS011;40425;51.102;17.208;2022-08-19T21:50:04;12.63;;;8.65;;
40695;SDS011;40425;51.102;17.208;2022-08-19T21:55:07;14.27;;;8.20;;
40695;SDS011;40425;51.102;17.208;2022-08-19T22:00:15;13.25;;;8.00;;
40695;SDS011;40425;51.102;17.208;2022-08-19T22:05:18;12.13;;;9.80;;
40695;SDS011;40425;51.102;17.208;2022-08-19T22:10:22;13.30;;;8.68;;
40695;SDS011;40425;51.102;17.208;2022-08-19T22:15:25;13.18;;;8.30;;
40695;SDS011;40425;51.102;17.208;2022-08-19T22:20:29;11.45;;;8.23;;
40695;SDS011;40425;51.102;17.208;2022-08-19T22:25:34;17.98;;;10.02;;
40695;SDS011;40425;51.102;17.208;2022-08-19T22:30:39;17.42;;;10.45;;
40695;SDS011;40425;51.102;17.208;2022-08-19T22:35:42;11.43;;;9.65;;
40695;SDS011;40425;51.102;17.208;2022-08-19T22:40:45;11.10;;;8.70;;
40695;SDS011;40425;51.102;17.208;2022-08-19T22:45:48;19.35;;;9.23;;
40695;SDS011;40425;51.102;17.208;2022-08-19T22:50:50;10.88;;;9.77;;
40695;SDS011;40425;51.102;17.208;2022-08-19T22:56:11;16.83;;;10.63;;
40695;SDS011;40425;51.102;17.208;2022-08-19T23:01:13;15.18;;;9.70;;
40695;SDS011;40425;51.102;17.208;2022-08-19T23:06:15;13.05;;;9.18;;
40695;SDS011;40425;51.102;17.208;2022-08-19T23:11:16;13.80;;;9.00;;
40695;SDS011;40425;51.102;17.208;2022-08-19T23:16:17;14.57;;;9.90;;
40695;SDS011;40425;51.102;17.208;2022-08-19T23:21:18;20.70;;;9.90;;
40695;SDS011;40425;51.102;17.208;2022-08-19T23:26:19;14.95;;;10.50;;
40695;SDS011;40425;51.102;17.208;2022-08-19T23:31:20;17.83;;;12.32;;
40695;SDS011;40425;51.102;17.208;2022-08-19T23:36:21;14.85;;;12.50;;
40695;SDS011;40425;51.102;17.208;2022-08-19T23:41:23;13.00;;;10.35;;
40695;SDS011;40425;51.102;17.208;2022-08-19T23:46:26;18.73;;;11.77;;
40695;SDS011;40425;51.102;17.208;2022-08-19T23:51:27;23.05;;;12.65;;
40695;SDS011;40425;51.102;17.208;2022-08-19T23:56:28;17.80;;;12.23;;
